sensor_id;sensor_type;location;lat;lon;timestamp;pressure;altitude;pressure_sealevel;temperature;humidity
73455;BME280;61690;51.824;6.306;2023-05-03T00:00:56;102816.44;;;17.73;47.31
73455;BME280;61690;51.824;6.306;2023-05-03T00:03:25;102819.13;;;17.71;47.37
73455;BME280;61690;51.824;6.306;2023-05-03T00:05:52;102823.53;;;17.71;47.42
73455;BME280;61690;51.824;6.306;2023-05-03T00:08:18;102822.66;;;17.70;46.98
73455;BME280;61690;51.824;6.306;2023-05-03T00:10:46;102821.78;;;17.70;47.48
73455;BME280;61690;51.824;6.306;2023-05-03T00:13:11;102821.91;;;17.67;47.29
73455;BME280;61690;51.824;6.306;2023-05-03T00:15:38;102818.41;;;17.66;47.29
73455;BME280;61690;51.824;6.306;2023-05-03T00:18:03;102822.84;;;17.64;47.44
73455;BME280;61690;51.824;6.306;2023-05-03T00:20:29;102827.22;;;17.65;47.44
73455;BME280;61690;51.824;6.306;2023-05-03T00:22:56;102824.63;;;17.63;47.48
73455;BME280;61690;51.824;6.306;2023-05-03T00:25:21;102821.13;;;17.63;47.56
73455;BME280;61690;51.824;6.306;2023-05-03T00:27:47;102824.72;;;17.60;47.38
73455;BME280;61690;51.824;6.306;2023-05-03T00:30:14;102824.72;;;17.60;47.21
73455;BME280;61690;51.824;6.306;2023-05-03T00:32:39;102820.31;;;17.61;47.62
73455;BME280;61690;51.824;6.306;2023-05-03T00:35:05;102820.34;;;17.59;47.55
73455;BME280;61690;51.824;6.306;2023-05-03T00:37:30;102828.28;;;17.58;47.16
73455;BME280;61690;51.824;6.306;2023-05-03T00:39:56;102819.53;;;17.57;47.22
73455;BME280;61690;51.824;6.306;2023-05-03T00:42:21;102818.69;;;17.57;47.17
73455;BME280;61690;51.824;6.306;2023-05-03T00:44:48;102823.97;;;17.57;47.09
73455;BME280;61690;51.824;6.306;2023-05-03T00:47:14;102818.72;;;17.55;47.44
73455;BME280;61690;51.824;6.306;2023-05-03T00:49:40;102821.38;;;17.55;47.31
73455;BME280;61690;51.824;6.306;2023-05-03T00:52:05;102826.72;;;17.52;47.24
73455;BME280;61690;51.824;6.306;2023-05-03T00:54:31;102824.06;;;17.52;47.38
73455;BME280;61690;51.824;6.306;2023-05-03T00:56:59;102829.34;;;17.52;47.07
73455;BME280;61690;51.824;6.306;2023-05-03T00:59:27;102815.34;;;17.52;47.22
73455;BME280;61690;51.824;6.306;2023-05-03T01:01:53;102811.84;;;17.51;47.68
73455;BME280;61690;51.824;6.306;2023-05-03T01:04:19;102810.09;;;17.50;47.38
73455;BME280;61690;51.824;6.306;2023-05-03T01:17:27;102812.97;;;17.42;47.45
73455;BME280;61690;51.824;6.306;2023-05-03T01:20:07;102811.25;;;17.41;47.29
73455;BME280;61690;51.824;6.306;2023-05-03T01:25:22;102817.38;;;17.42;47.50
73455;BME280;61690;51.824;6.306;2023-05-03T01:27:47;102817.34;;;17.43;47.38
73455;BME280;61690;51.824;6.306;2023-05-03T01:30:12;102814.81;;;17.39;47.69
73455;BME280;61690;51.824;6.306;2023-05-03T01:33:10;102816.53;;;17.41;47.60
73455;BME280;61690;51.824;6.306;2023-05-03T01:35:48;102820.09;;;17.39;47.47
73455;BME280;61690;51.824;6.306;2023-05-03T01:38:21;102824.53;;;17.37;47.82
73455;BME280;61690;51.824;6.306;2023-05-03T01:40:49;102828.09;;;17.36;47.73
73455;BME280;61690;51.824;6.306;2023-05-03T01:43:17;102824.66;;;17.34;47.96
73455;BME280;61690;51.824;6.306;2023-05-03T01:45:43;102827.28;;;17.34;47.39
73455;BME280;61690;51.824;6.306;2023-05-03T01:48:13;102837.78;;;17.34;47.76
73455;BME280;61690;51.824;6.306;2023-05-03T01:50:39;102843.91;;;17.34;47.43
73455;BME280;61690;51.824;6.306;2023-05-03T01:53:04;102835.22;;;17.32;47.74
73455;BME280;61690;51.824;6.306;2023-05-03T01:55:30;102844.00;;;17.31;47.71
73455;BME280;61690;51.824;6.306;2023-05-03T01:57:55;102841.44;;;17.30;47.91
73455;BME280;61690;51.824;6.306;2023-05-03T02:00:22;102843.22;;;17.28;47.81
73455;BME280;61690;51.824;6.306;2023-05-03T02:02:47;102841.50;;;17.27;47.62
73455;BME280;61690;51.824;6.306;2023-05-03T02:05:13;102844.16;;;17.25;47.82
73455;BME280;61690;51.824;6.306;2023-05-03T02:07:38;102843.31;;;17.24;47.78
73455;BME280;61690;51.824;6.306;2023-05-03T02:10:04;102844.25;;;17.22;47.65
73455;BME280;61690;51.824;6.306;2023-05-03T02:12:31;102835.44;;;17.24;47.84
73455;BME280;61690;51.824;6.306;2023-05-03T02:14:57;102838.94;;;17.23;47.82
73455;BME280;61690;51.824;6.306;2023-05-03T02:17:22;102832.84;;;17.23;47.81
73455;BME280;61690;51.824;6.306;2023-05-03T02:19:51;102838.94;;;17.23;47.89
73455;BME280;61690;51.824;6.306;2023-05-03T02:22:16;102838.91;;;17.25;47.50
73455;BME280;61690;51.824;6.306;2023-05-03T02:24:42;102839.88;;;17.22;47.70
73455;BME280;61690;51.824;6.306;2023-05-03T02:27:07;102830.28;;;17.20;47.86
73455;BME280;61690;51.824;6.306;2023-05-03T02:29:33;102834.69;;;17.19;47.68
73455;BME280;61690;51.824;6.306;2023-05-03T02:31:59;102839.13;;;17.17;47.62
73455;BME280;61690;51.824;6.306;2023-05-03T02:34:25;102840.81;;;17.20;47.51
73455;BME280;61690;51.824;6.306;2023-05-03T02:36:50;102838.31;;;17.15;47.66
73455;BME280;61690;51.824;6.306;2023-05-03T02:39:16;102840.06;;;17.16;47.95
73455;BME280;61690;51.824;6.306;2023-05-03T02:41:41;102847.09;;;17.14;47.82
73455;BME280;61690;51.824;6.306;2023-05-03T02:44:07;102843.56;;;17.15;47.94
73455;BME280;61690;51.824;6.306;2023-05-03T02:46:32;102840.19;;;17.10;47.72
73455;BME280;61690;51.824;6.306;2023-05-03T02:48:57;102841.94;;;17.11;48.00
73455;BME280;61690;51.824;6.306;2023-05-03T02:51:24;102829.69;;;17.10;47.60
73455;BME280;61690;51.824;6.306;2023-05-03T02:53:49;102825.41;;;17.06;47.82
73455;BME280;61690;51.824;6.306;2023-05-03T02:56:14;102830.66;;;17.08;47.97
73455;BME280;61690;51.824;6.306;2023-05-03T02:58:40;102823.56;;;17.10;47.54
73455;BME280;61690;51.824;6.306;2023-05-03T03:01:06;102816.66;;;17.07;47.64
73455;BME280;61690;51.824;6.306;2023-05-03T03:03:33;102812.28;;;17.06;48.01
73455;BME280;61690;51.824;6.306;2023-05-03T03:05:59;102814.69;;;17.14;47.84
73455;BME280;61690;51.824;6.306;2023-05-03T03:08:24;102810.97;;;17.21;47.66
73455;BME280;61690;51.824;6.306;2023-05-03T03:10:50;102814.75;;;17.42;47.05
73455;BME280;61690;51.824;6.306;2023-05-03T03:13:17;102800.88;;;17.65;47.02
73455;BME280;61690;51.824;6.306;2023-05-03T03:15:42;102801.19;;;17.84;46.07
73455;BME280;61690;51.824;6.306;2023-05-03T03:18:07;102800.91;;;17.93;45.92
73455;BME280;61690;51.824;6.306;2023-05-03T03:20:33;102800.63;;;18.02;46.10
73455;BME280;61690;51.824;6.306;2023-05-03T03:22:58;102793.41;;;18.08;45.58
73455;BME280;61690;51.824;6.306;2023-05-03T03:25:23;102799.22;;;18.17;45.83
73455;BME280;61690;51.824;6.306;2023-05-03T03:27:49;102787.63;;;18.23;45.65
73455;BME280;61690;51.824;6.306;2023-05-03T03:30:14;102776.97;;;18.28;45.67
73455;BME280;61690;51.824;6.306;2023-05-03T03:32:40;102775.75;;;18.36;45.01
73455;BME280;61690;51.824;6.306;2023-05-03T03:35:08;102766.03;;;18.38;45.36
73455;BME280;61690;51.824;6.306;2023-05-03T03:37:33;102768.34;;;18.48;44.78
73455;BME280;61690;51.824;6.306;2023-05-03T03:39:59;102764.72;;;18.50;44.79
73455;BME280;61690;51.824;6.306;2023-05-03T03:42:24;102758.38;;;18.56;44.80
73455;BME280;61690;51.824;6.306;2023-05-03T03:44:51;102756.44;;;18.61;44.53
73455;BME280;61690;51.824;6.306;2023-05-03T03:47:17;102760.75;;;18.64;44.97
73455;BME280;61690;51.824;6.306;2023-05-03T03:49:42;102764.13;;;18.67;44.54
73455;BME280;61690;51.824;6.306;2023-05-03T03:52:08;102774.63;;;18.69;44.95
73455;BME280;61690;51.824;6.306;2023-05-03T03:54:33;102768.38;;;18.71;44.37
73455;BME280;61690;51.824;6.306;2023-05-03T03:57:00;102778.72;;;18.77;44.35
73455;BME280;61690;51.824;6.306;2023-05-03T03:59:28;102782.06;;;18.83;44.27
73455;BME280;61690;51.824;6.306;2023-05-03T04:01:53;102787.22;;;18.86;44.46
73455;BME280;61690;51.824;6.306;2023-05-03T04:04:19;102787.06;;;18.90;44.40
73455;BME280;61690;51.824;6.306;2023-05-03T04:06:45;102794.88;;;18.93;44.06
73455;BME280;61690;51.824;6.306;2023-05-03T04:09:11;102796.53;;;18.96;44.37
73455;BME280;61690;51.824;6.306;2023-05-03T04:11:36;102799.28;;;18.93;44.28
73455;BME280;61690;51.824;6.306;2023-05-03T04:14:02;102798.41;;;18.92;44.14
73455;BME280;61690;51.824;6.306;2023-05-03T04:16:28;102801.97;;;18.91;44.36
73455;BME280;61690;51.824;6.306;2023-05-03T04:18:53;102800.38;;;18.87;44.19
73455;BME280;61690;51.824;6.306;2023-05-03T04:21:18;102810.16;;;18.84;44.19
73455;BME280;61690;51.824;6.306;2023-05-03T04:23:45;102801.44;;;18.82;44.70
73455;BME280;61690;51.824;6.306;2023-05-03T04:26:11;102805.00;;;18.80;44.50
73455;BME280;61690;51.824;6.306;2023-05-03T04:28:38;102802.13;;;18.87;44.67
73455;BME280;61690;51.824;6.306;2023-05-03T04:31:04;102801.84;;;18.94;44.16
73455;BME280;61690;51.824;6.306;2023-05-03T04:33:29;102805.97;;;19.02;44.06
73455;BME280;61690;51.824;6.306;2023-05-03T04:35:56;102807.44;;;19.10;43.83
73455;BME280;61690;51.824;6.306;2023-05-03T04:38:22;102805.53;;;19.14;43.53
73455;BME280;61690;51.824;6.306;2023-05-03T04:40:47;102814.06;;;19.20;43.98
73455;BME280;61690;51.824;6.306;2023-05-03T04:43:13;102819.25;;;19.24;43.84
73455;BME280;61690;51.824;6.306;2023-05-03T04:45:39;102818.22;;;19.28;43.89
73455;BME280;61690;51.824;6.306;2023-05-03T04:48:06;102817.28;;;19.29;43.92
73455;BME280;61690;51.824;6.306;2023-05-03T04:50:32;102835.75;;;19.29;44.18
73455;BME280;61690;51.824;6.306;2023-05-03T04:52:58;102832.91;;;19.35;44.05
73455;BME280;61690;51.824;6.306;2023-05-03T04:55:23;102834.50;;;19.39;44.03
73455;BME280;61690;51.824;6.306;2023-05-03T04:57:48;102835.25;;;19.43;44.07
73455;BME280;61690;51.824;6.306;2023-05-03T05:00:15;102839.53;;;19.45;43.94
73455;BME280;61690;51.824;6.306;2023-05-03T05:02:42;102848.31;;;19.46;44.01
73455;BME280;61690;51.824;6.306;2023-05-03T05:05:08;102850.91;;;19.47;44.04
73455;BME280;61690;51.824;6.306;2023-05-03T05:07:33;102850.84;;;19.49;44.27
73455;BME280;61690;51.824;6.306;2023-05-03T05:09:59;102854.44;;;19.46;44.13
73455;BME280;61690;51.824;6.306;2023-05-03T05:12:24;102848.44;;;19.43;44.26
73455;BME280;61690;51.824;6.306;2023-05-03T05:14:52;102859.09;;;19.39;44.17
73455;BME280;61690;51.824;6.306;2023-05-03T05:17:17;102869.75;;;19.36;44.62
73455;BME280;61690;51.824;6.306;2023-05-03T05:19:42;102868.22;;;19.31;44.62
73455;BME280;61690;51.824;6.306;2023-05-03T05:22:08;102862.22;;;19.27;44.57
73455;BME280;61690;51.824;6.306;2023-05-03T05:24:33;102879.13;;;19.22;44.81
73455;BME280;61690;51.824;6.306;2023-05-03T05:26:59;102877.50;;;19.17;44.91
73455;BME280;61690;51.824;6.306;2023-05-03T05:29:25;102874.13;;;19.14;45.10
73455;BME280;61690;51.824;6.306;2023-05-03T05:31:50;102874.22;;;19.11;45.08
73455;BME280;61690;51.824;6.306;2023-05-03T05:34:16;102875.31;;;19.05;45.14
73455;BME280;61690;51.824;6.306;2023-05-03T05:36:41;102885.91;;;19.04;45.25
73455;BME280;61690;51.824;6.306;2023-05-03T05:39:06;102886.03;;;19.00;45.09
73455;BME280;61690;51.824;6.306;2023-05-03T05:41:32;102889.63;;;18.98;45.04
73455;BME280;61690;51.824;6.306;2023-05-03T05:43:57;102889.75;;;18.95;45.29
73455;BME280;61690;51.824;6.306;2023-05-03T05:46:23;102889.03;;;18.90;45.28
73455;BME280;61690;51.824;6.306;2023-05-03T05:48:48;102891.72;;;18.88;45.28
73455;BME280;61690;51.824;6.306;2023-05-03T05:51:16;102893.59;;;18.85;45.47
73455;BME280;61690;51.824;6.306;2023-05-03T05:53:42;102897.28;;;18.80;45.58
73455;BME280;61690;51.824;6.306;2023-05-03T05:56:10;102896.53;;;18.75;45.64
73455;BME280;61690;51.824;6.306;2023-05-03T05:58:36;102902.78;;;18.73;45.71
73455;BME280;61690;51.824;6.306;2023-05-03T06:01:02;102896.41;;;19.05;45.25
73455;BME280;61690;51.824;6.306;2023-05-03T06:03:28;102896.94;;;19.38;44.95
73455;BME280;61690;51.824;6.306;2023-05-03T06:05:53;102896.91;;;19.64;44.41
73455;BME280;61690;51.824;6.306;2023-05-03T06:08:18;102895.97;;;19.88;44.34
73455;BME280;61690;51.824;6.306;2023-05-03T06:10:44;102893.63;;;20.04;43.90
73455;BME280;61690;51.824;6.306;2023-05-03T06:13:09;102901.78;;;20.20;44.35
73455;BME280;61690;51.824;6.306;2023-05-03T06:15:34;102889.78;;;20.33;44.25
73455;BME280;61690;51.824;6.306;2023-05-03T06:18:00;102883.97;;;20.46;44.27
73455;BME280;61690;51.824;6.306;2023-05-03T06:20:25;102884.16;;;20.63;43.85
73455;BME280;61690;51.824;6.306;2023-05-03T06:22:52;102887.13;;;20.76;43.75
73455;BME280;61690;51.824;6.306;2023-05-03T06:25:17;102889.84;;;20.74;44.20
73455;BME280;61690;51.824;6.306;2023-05-03T06:27:43;102889.97;;;20.92;44.13
73455;BME280;61690;51.824;6.306;2023-05-03T06:30:08;102891.06;;;21.07;43.84
73455;BME280;61690;51.824;6.306;2023-05-03T06:32:34;102892.19;;;21.22;43.64
73455;BME280;61690;51.824;6.306;2023-05-03T06:34:59;102889.19;;;21.29;43.84
73455;BME280;61690;51.824;6.306;2023-05-03T06:37:26;102894.84;;;21.41;43.70
73455;BME280;61690;51.824;6.306;2023-05-03T06:39:53;102896.91;;;21.54;43.62
73455;BME280;61690;51.824;6.306;2023-05-03T06:42:19;102894.75;;;21.63;43.57
73455;BME280;61690;51.824;6.306;2023-05-03T06:44:46;102894.25;;;21.73;43.36
73455;BME280;61690;51.824;6.306;2023-05-03T06:47:12;102893.94;;;21.80;43.36
73455;BME280;61690;51.824;6.306;2023-05-03T06:49:39;102892.16;;;21.80;43.28
73455;BME280;61690;51.824;6.306;2023-05-03T06:52:05;102888.81;;;21.77;43.51
73455;BME280;61690;51.824;6.306;2023-05-03T06:54:32;102886.06;;;21.78;43.66
73455;BME280;61690;51.824;6.306;2023-05-03T06:56:57;102885.09;;;21.81;43.76
73455;BME280;61690;51.824;6.306;2023-05-03T06:59:22;102875.22;;;21.84;43.61
73455;BME280;61690;51.824;6.306;2023-05-03T07:01:48;102872.47;;;21.86;43.76
73455;BME280;61690;51.824;6.306;2023-05-03T07:04:15;102873.94;;;21.91;43.46
73455;BME280;61690;51.824;6.306;2023-05-03T07:06:41;102872.88;;;21.96;43.61
73455;BME280;61690;51.824;6.306;2023-05-03T07:09:06;102875.38;;;21.99;43.57
73455;BME280;61690;51.824;6.306;2023-05-03T07:11:32;102869.94;;;22.02;43.75
73455;BME280;61690;51.824;6.306;2023-05-03T07:13:59;102879.53;;;22.04;43.71
73455;BME280;61690;51.824;6.306;2023-05-03T07:16:24;102874.00;;;22.09;43.57
73455;BME280;61690;51.824;6.306;2023-05-03T07:18:50;102873.50;;;22.01;43.92
73455;BME280;61690;51.824;6.306;2023-05-03T07:21:16;102876.84;;;21.87;44.01
73455;BME280;61690;51.824;6.306;2023-05-03T07:23:42;102878.50;;;21.70;44.20
73455;BME280;61690;51.824;6.306;2023-05-03T07:26:08;102879.94;;;21.59;44.08
73455;BME280;61690;51.824;6.306;2023-05-03T07:28:35;102874.38;;;21.46;44.46
73455;BME280;61690;51.824;6.306;2023-05-03T07:31:01;102873.03;;;21.35;44.62
73455;BME280;61690;51.824;6.306;2023-05-03T07:33:28;102866.88;;;21.35;44.61
73455;BME280;61690;51.824;6.306;2023-05-03T07:35:53;102863.50;;;21.31;44.74
73455;BME280;61690;51.824;6.306;2023-05-03T07:38:18;102864.66;;;21.26;44.58
73455;BME280;61690;51.824;6.306;2023-05-03T07:40:45;102867.41;;;21.23;44.99
73455;BME280;61690;51.824;6.306;2023-05-03T07:43:11;102865.59;;;21.25;45.21
73455;BME280;61690;51.824;6.306;2023-05-03T07:45:36;102867.41;;;21.23;45.07
73455;BME280;61690;51.824;6.306;2023-05-03T07:48:03;102863.88;;;21.24;45.00
73455;BME280;61690;51.824;6.306;2023-05-03T07:50:29;102864.16;;;21.18;45.36
73455;BME280;61690;51.824;6.306;2023-05-03T07:52:54;102860.72;;;21.15;45.40
73455;BME280;61690;51.824;6.306;2023-05-03T07:55:20;102863.41;;;21.14;45.75
73455;BME280;61690;51.824;6.306;2023-05-03T07:57:46;102853.13;;;21.08;45.67
73455;BME280;61690;51.824;6.306;2023-05-03T08:00:13;102850.66;;;21.03;45.95
73455;BME280;61690;51.824;6.306;2023-05-03T08:02:44;102850.16;;;20.95;46.21
73455;BME280;61690;51.824;6.306;2023-05-03T08:05:10;102858.03;;;20.97;46.27
73455;BME280;61690;51.824;6.306;2023-05-03T08:07:39;102852.06;;;20.91;46.22
73455;BME280;61690;51.824;6.306;2023-05-03T08:10:07;102843.69;;;20.82;46.30
73455;BME280;61690;51.824;6.306;2023-05-03T08:12:32;102842.22;;;20.74;46.41
73455;BME280;61690;51.824;6.306;2023-05-03T08:14:57;102837.22;;;20.68;46.40
73455;BME280;61690;51.824;6.306;2023-05-03T08:17:23;102828.63;;;20.63;46.46
73455;BME280;61690;51.824;6.306;2023-05-03T08:19:48;102828.78;;;20.59;46.50
73455;BME280;61690;51.824;6.306;2023-05-03T08:22:14;102835.16;;;20.54;46.31
73455;BME280;61690;51.824;6.306;2023-05-03T08:24:41;102835.25;;;20.51;46.45
73455;BME280;61690;51.824;6.306;2023-05-03T08:27:07;102833.63;;;20.49;46.61
73455;BME280;61690;51.824;6.306;2023-05-03T08:29:34;102832.84;;;20.47;46.46
73455;BME280;61690;51.824;6.306;2023-05-03T08:32:02;102831.38;;;20.40;46.59
73455;BME280;61690;51.824;6.306;2023-05-03T08:34:31;102831.88;;;20.48;45.96
73455;BME280;61690;51.824;6.306;2023-05-03T08:36:57;102821.41;;;20.46;46.47
73455;BME280;61690;51.824;6.306;2023-05-03T08:39:23;102825.75;;;20.47;46.25
73455;BME280;61690;51.824;6.306;2023-05-03T08:41:55;102825.69;;;20.49;46.46
73455;BME280;61690;51.824;6.306;2023-05-03T08:44:21;102816.63;;;20.54;46.65
73455;BME280;61690;51.824;6.306;2023-05-03T08:46:51;102818.44;;;20.54;46.21
73455;BME280;61690;51.824;6.306;2023-05-03T08:49:17;102810.63;;;20.51;46.66
73455;BME280;61690;51.824;6.306;2023-05-03T08:51:44;102810.84;;;20.46;46.53
73455;BME280;61690;51.824;6.306;2023-05-03T08:54:15;102819.63;;;20.47;46.28
73455;BME280;61690;51.824;6.306;2023-05-03T08:56:45;102811.69;;;20.47;46.47
73455;BME280;61690;51.824;6.306;2023-05-03T08:59:12;102822.19;;;20.48;46.25
73455;BME280;61690;51.824;6.306;2023-05-03T09:01:44;102820.63;;;20.44;46.26
73455;BME280;61690;51.824;6.306;2023-05-03T09:04:10;102826.75;;;20.45;46.49
73455;BME280;61690;51.824;6.306;2023-05-03T09:06:37;102825.41;;;20.34;46.24
73455;BME280;61690;51.824;6.306;2023-05-03T09:09:04;102823.69;;;20.33;46.03
73455;BME280;61690;51.824;6.306;2023-05-03T09:11:33;102816.44;;;20.39;46.12
73455;BME280;61690;51.824;6.306;2023-05-03T09:14:13;102812.91;;;20.38;45.93
73455;BME280;61690;51.824;6.306;2023-05-03T09:16:40;102821.84;;;20.35;46.48
73455;BME280;61690;51.824;6.306;2023-05-03T09:19:08;102826.22;;;20.36;46.50
73455;BME280;61690;51.824;6.306;2023-05-03T09:21:36;102808.56;;;20.37;46.52
73455;BME280;61690;51.824;6.306;2023-05-03T09:24:20;102812.06;;;20.37;46.55
73455;BME280;61690;51.824;6.306;2023-05-03T09:26:47;102802.44;;;20.36;46.55
73455;BME280;61690;51.824;6.306;2023-05-03T09:29:29;102798.84;;;20.37;46.72
73455;BME280;61690;51.824;6.306;2023-05-03T09:32:03;102784.00;;;20.35;47.05
73455;BME280;61690;51.824;6.306;2023-05-03T09:34:34;102785.69;;;20.36;47.11
73455;BME280;61690;51.824;6.306;2023-05-03T09:37:01;102781.16;;;20.40;47.04
73455;BME280;61690;51.824;6.306;2023-05-03T09:39:27;102798.06;;;20.35;47.43
73455;BME280;61690;51.824;6.306;2023-05-03T09:41:52;102798.91;;;20.36;47.48
73455;BME280;61690;51.824;6.306;2023-05-03T09:44:18;102797.16;;;20.36;47.37
73455;BME280;61690;51.824;6.306;2023-05-03T09:47:06;102799.84;;;20.35;47.31
73455;BME280;61690;51.824;6.306;2023-05-03T09:49:31;102795.53;;;20.32;47.61
73455;BME280;61690;51.824;6.306;2023-05-03T09:52:00;102800.13;;;20.29;47.84
73455;BME280;61690;51.824;6.306;2023-05-03T09:54:27;102798.19;;;20.32;48.03
73455;BME280;61690;51.824;6.306;2023-05-03T09:56:53;102804.16;;;20.37;47.93
73455;BME280;61690;51.824;6.306;2023-05-03T09:59:21;102804.25;;;20.34;47.95
73455;BME280;61690;51.824;6.306;2023-05-03T10:01:47;102804.41;;;20.31;47.71
73455;BME280;61690;51.824;6.306;2023-05-03T10:04:15;102802.69;;;20.30;46.92
73455;BME280;61690;51.824;6.306;2023-05-03T10:06:47;102798.44;;;20.26;46.29
73455;BME280;61690;51.824;6.306;2023-05-03T10:09:20;102793.16;;;20.26;46.24
73455;BME280;61690;51.824;6.306;2023-05-03T10:11:53;102794.53;;;20.14;46.45
73455;BME280;61690;51.824;6.306;2023-05-03T10:14:20;102800.81;;;20.12;46.17
73455;BME280;61690;51.824;6.306;2023-05-03T10:16:58;102798.38;;;20.07;46.73
73455;BME280;61690;51.824;6.306;2023-05-03T10:19:32;102785.16;;;20.07;46.50
73455;BME280;61690;51.824;6.306;2023-05-03T10:22:09;102786.94;;;20.07;46.28
73455;BME280;61690;51.824;6.306;2023-05-03T10:25:06;102791.56;;;20.02;46.59
73455;BME280;61690;51.824;6.306;2023-05-03T10:28:21;102785.31;;;20.04;46.39
73455;BME280;61690;51.824;6.306;2023-05-03T10:32:50;102793.34;;;20.01;46.64
73455;BME280;61690;51.824;6.306;2023-05-03T10:35:18;102782.81;;;20.00;46.42
73455;BME280;61690;51.824;6.306;2023-05-03T10:37:43;102777.69;;;19.96;46.27
73455;BME280;61690;51.824;6.306;2023-05-03T10:40:14;102782.81;;;20.00;46.35
73455;BME280;61690;51.824;6.306;2023-05-03T10:42:45;102780.44;;;19.93;46.36
73455;BME280;61690;51.824;6.306;2023-05-03T10:45:26;102774.44;;;19.90;46.63
73455;BME280;61690;51.824;6.306;2023-05-03T10:50:41;102773.47;;;19.92;46.41
73455;BME280;61690;51.824;6.306;2023-05-03T10:53:07;102773.47;;;19.92;46.23
73455;BME280;61690;51.824;6.306;2023-05-03T10:55:34;102778.66;;;19.94;46.16
73455;BME280;61690;51.824;6.306;2023-05-03T10:58:00;102771.78;;;19.90;46.45
73455;BME280;61690;51.824;6.306;2023-05-03T11:00:52;102771.94;;;19.87;46.32
73455;BME280;61690;51.824;6.306;2023-05-03T11:05:47;102766.25;;;19.96;46.29
73455;BME280;61690;51.824;6.306;2023-05-03T11:08:17;102761.63;;;20.01;46.38
73455;BME280;61690;51.824;6.306;2023-05-03T11:10:44;102756.16;;;20.06;46.51
73455;BME280;61690;51.824;6.306;2023-05-03T11:13:11;102757.75;;;20.10;46.38
73455;BME280;61690;51.824;6.306;2023-05-03T11:15:37;102754.06;;;20.14;46.76
73455;BME280;61690;51.824;6.306;2023-05-03T11:18:07;102747.78;;;20.16;47.02
73455;BME280;61690;51.824;6.306;2023-05-03T11:20:33;102758.28;;;20.18;47.18
73455;BME280;61690;51.824;6.306;2023-05-03T11:22:59;102752.94;;;20.20;47.10
73455;BME280;61690;51.824;6.306;2023-05-03T11:25:25;102749.31;;;20.22;47.18
73455;BME280;61690;51.824;6.306;2023-05-03T11:27:51;102751.88;;;20.24;47.39
73455;BME280;61690;51.824;6.306;2023-05-03T11:30:18;102753.69;;;20.23;47.47
73455;BME280;61690;51.824;6.306;2023-05-03T11:32:46;102753.69;;;20.23;47.52
73455;BME280;61690;51.824;6.306;2023-05-03T11:35:12;102750.09;;;20.24;47.76
73455;BME280;61690;51.824;6.306;2023-05-03T11:37:41;102750.88;;;20.26;48.08
73455;BME280;61690;51.824;6.306;2023-05-03T11:40:13;102755.25;;;20.27;47.72
73455;BME280;61690;51.824;6.306;2023-05-03T11:42:54;102758.69;;;20.29;48.27
73455;BME280;61690;51.824;6.306;2023-05-03T11:45:41;102745.47;;;20.29;48.14
73455;BME280;61690;51.824;6.306;2023-05-03T11:48:09;102742.63;;;20.34;48.35
73455;BME280;61690;51.824;6.306;2023-05-03T11:53:14;102736.53;;;20.32;48.36
73455;BME280;61690;51.824;6.306;2023-05-03T11:55:41;102739.97;;;20.34;47.16
73455;BME280;61690;51.824;6.306;2023-05-03T11:58:15;102728.03;;;20.25;47.13
73455;BME280;61690;51.824;6.306;2023-05-03T12:00:47;102727.25;;;20.23;46.86
73455;BME280;61690;51.824;6.306;2023-05-03T12:03:17;102725.59;;;20.21;47.32
73455;BME280;61690;51.824;6.306;2023-05-03T12:05:43;102723.09;;;20.17;47.17
73455;BME280;61690;51.824;6.306;2023-05-03T12:08:09;102716.81;;;20.20;46.84
73455;BME280;61690;51.824;6.306;2023-05-03T12:10:35;102719.22;;;20.25;46.70
73455;BME280;61690;51.824;6.306;2023-05-03T12:13:02;102707.69;;;20.27;47.16
73455;BME280;61690;51.824;6.306;2023-05-03T12:15:36;102704.03;;;20.30;46.81
73455;BME280;61690;51.824;6.306;2023-05-03T12:18:08;102698.75;;;20.30;46.80
73455;BME280;61690;51.824;6.306;2023-05-03T12:20:35;102698.69;;;20.31;46.95
73455;BME280;61690;51.824;6.306;2023-05-03T12:23:03;102699.44;;;20.35;46.89
73455;BME280;61690;51.824;6.306;2023-05-03T12:25:30;102691.44;;;20.36;46.97
73455;BME280;61690;51.824;6.306;2023-05-03T12:27:56;102687.84;;;20.37;47.04
73455;BME280;61690;51.824;6.306;2023-05-03T12:30:23;102689.56;;;20.39;47.18
73455;BME280;61690;51.824;6.306;2023-05-03T12:32:49;102684.28;;;20.39;47.17
73455;BME280;61690;51.824;6.306;2023-05-03T12:35:16;102680.69;;;20.40;47.10
73455;BME280;61690;51.824;6.306;2023-05-03T12:37:42;102680.78;;;20.38;47.19
73455;BME280;61690;51.824;6.306;2023-05-03T12:40:10;102673.78;;;20.37;47.44
73455;BME280;61690;51.824;6.306;2023-05-03T12:42:36;102673.72;;;20.39;47.18
73455;BME280;61690;51.824;6.306;2023-05-03T12:45:11;102671.72;;;20.44;47.36
73455;BME280;61690;51.824;6.306;2023-05-03T12:47:38;102665.63;;;20.42;47.19
73455;BME280;61690;51.824;6.306;2023-05-03T12:50:06;102664.72;;;20.43;47.32
73455;BME280;61690;51.824;6.306;2023-05-03T12:52:33;102661.13;;;20.44;47.45
73455;BME280;61690;51.824;6.306;2023-05-03T12:54:59;102653.13;;;20.45;47.44
73455;BME280;61690;51.824;6.306;2023-05-03T12:57:25;102653.13;;;20.45;47.49
73455;BME280;61690;51.824;6.306;2023-05-03T12:59:51;102646.22;;;20.43;47.71
73455;BME280;61690;51.824;6.306;2023-05-03T13:02:21;102638.41;;;20.40;47.21
73455;BME280;61690;51.824;6.306;2023-05-03T13:04:46;102641.28;;;20.35;47.27
73455;BME280;61690;51.824;6.306;2023-05-03T13:07:15;102634.41;;;20.31;47.56
73455;BME280;61690;51.824;6.306;2023-05-03T13:09:44;102631.84;;;20.29;47.33
73455;BME280;61690;51.824;6.306;2023-05-03T13:12:13;102627.41;;;20.30;47.22
73455;BME280;61690;51.824;6.306;2023-05-03T13:14:38;102617.84;;;20.27;46.91